Time;durP1;ratioP1;P1;durP2;ratioP2;P2;SDS_P1;SDS_P2;PMS_P1;PMS_P2;Temp;Humidity;BMP_temperature;BMP_pressure;BME280_temperature;BME280_humidity;BME280_pressure;Samples;Min_cycle;Max_cycle;Signal;HPM_P1;HPM_P2
2022/01/31 00:01:04;;;;;;;12.23;3.00;;;;;;;2.04;64.78;99841.30;1519212;90;21496;-92
2022/01/31 00:03:30;;;;;;;12.93;3.43;;;;;;;2.02;64.80;99839.28;1370105;90;21592;-89
2022/01/31 00:05:57;;;;;;;10.00;2.40;;;;;;;1.99;64.99;99842.94;1371113;89;21505;-88
2022/01/31 00:08:24;;;;;;;9.10;3.17;;;;;;;1.97;64.95;99840.07;1370762;89;21765;-89
2022/01/31 00:10:51;;;;;;;12.00;3.30;;;;;;;1.95;64.85;99845.86;1381944;89;21619;-88
2022/01/31 00:13:23;;;;;;;16.20;5.23;;;;;;;1.93;65.03;99851.20;1420955;86;21729;-88
2022/01/31 00:15:53;;;;;;;10.47;2.60;;;;;;;1.88;65.28;99851.16;1419255;86;21712;-92
2022/01/31 00:18:14;;;;;;;10.40;2.30;;;;;;;1.83;65.29;99853.24;1539717;86;22648;-89
2022/01/31 00:20:41;;;;;;;6.83;2.77;;;;;;;1.77;65.43;99847.97;1522663;86;21556;-89
2022/01/31 00:23:07;;;;;;;11.97;2.73;;;;;;;1.75;65.32;99850.67;1566461;88;22304;-89
2022/01/31 00:25:34;;;;;;;10.93;3.40;;;;;;;1.70;65.61;99858.01;1403834;88;21542;-90
2022/01/31 00:28:00;;;;;;;8.10;2.60;;;;;;;1.67;65.72;99858.22;1556891;88;22463;-90
2022/01/31 00:30:26;;;;;;;16.03;3.50;;;;;;;1.63;65.89;99854.13;1428351;87;21527;-90
2022/01/31 00:32:52;;;;;;;14.23;2.90;;;;;;;1.60;65.98;99860.03;1452872;87;22878;-89
2022/01/31 00:35:19;;;;;;;17.77;5.10;;;;;;;1.56;66.10;99863.33;1569645;87;21516;-91
2022/01/31 00:37:46;;;;;;;22.87;3.90;;;;;;;1.51;66.73;99863.63;1406967;87;22519;-88
2022/01/31 00:40:12;;;;;;;15.37;3.80;;;;;;;1.49;66.98;99869.41;1407037;87;21604;-90
2022/01/31 00:42:39;;;;;;;18.00;4.47;;;;;;;1.46;66.72;99873.52;1411274;87;22434;-90
2022/01/31 00:45:12;;;;;;;13.37;2.90;;;;;;;1.44;66.83;99877.17;1406798;87;21551;-91
2022/01/31 00:47:37;;;;;;;9.80;3.10;;;;;;;1.41;67.27;99876.08;1458831;87;21535;-90
2022/01/31 00:50:07;;;;;;;22.07;5.17;;;;;;;1.39;67.19;99869.67;1405474;87;21623;-90
2022/01/31 00:52:33;;;;;;;14.43;3.40;;;;;;;1.38;67.03;99869.29;1526636;87;21552;-88
2022/01/31 00:54:59;;;;;;;10.33;2.60;;;;;;;1.37;67.51;99869.41;1401609;88;22500;-89
2022/01/31 00:57:25;;;;;;;17.97;4.33;;;;;;;1.35;67.49;99875.57;1429714;87;21484;-89
2022/01/31 00:59:53;;;;;;;15.70;3.60;;;;;;;1.37;67.58;99883.75;1456943;87;21733;-89
2022/01/31 01:02:24;;;;;;;10.80;3.77;;;;;;;1.37;67.45;99888.96;1476026;87;21632;-88
2022/01/31 01:04:51;;;;;;;;;;;;;;;1.37;67.52;99895.00;1573684;87;22535;-89
2022/01/31 01:07:19;;;;;;;18.40;3.93;;;;;;;1.35;67.99;99888.61;1407272;87;20260;-89
2022/01/31 01:09:46;;;;;;;15.27;5.17;;;;;;;1.34;67.53;99880.40;1405569;87;21359;-88
2022/01/31 01:12:15;;;;;;;8.90;2.67;;;;;;;1.34;67.49;99875.19;1407807;87;21747;-89
2022/01/31 01:14:42;;;;;;;14.33;2.97;;;;;;;1.32;67.70;99880.13;1406052;87;21498;-90
2022/01/31 01:17:08;;;;;;;10.40;3.63;;;;;;;1.30;67.72;99872.90;1498485;87;21592;-89
2022/01/31 01:19:35;;;;;;;8.10;1.73;;;;;;;1.26;67.88;99876.16;1415597;87;22321;-88
2022/01/31 01:22:02;;;;;;;12.67;3.00;;;;;;;1.22;68.15;99877.31;1446877;87;21478;-88
2022/01/31 01:24:28;;;;;;;7.10;2.33;;;;;;;1.22;67.79;99868.19;1396863;87;21572;-89
2022/01/31 01:26:54;;;;;;;10.87;3.13;;;;;;;1.19;68.48;99864.48;1392289;89;21538;-89
2022/01/31 01:29:20;;;;;;;10.60;2.00;;;;;;;1.17;68.46;99862.44;1457573;88;22641;-90
2022/01/31 01:31:48;;;;;;;21.27;4.77;;;;;;;1.19;68.08;99855.36;1392177;88;21634;-90
2022/01/31 01:34:16;;;;;;;13.90;3.13;;;;;;;1.22;68.38;99847.80;1502003;88;21540;-90
2022/01/31 01:36:44;;;;;;;19.87;3.57;;;;;;;1.21;68.17;99843.06;1372108;88;21559;-90
2022/01/31 01:39:11;;;;;;;12.13;2.93;;;;;;;1.22;68.90;99840.81;1391099;88;21506;-91
2022/01/31 01:41:38;;;;;;;13.67;2.93;;;;;;;1.24;68.76;99835.03;1445943;88;21368;-91
2022/01/31 01:44:04;;;;;;;11.40;2.73;;;;;;;1.26;68.50;99842.27;1392104;88;22116;-89
2022/01/31 01:46:30;;;;;;;12.93;4.63;;;;;;;1.24;68.70;99844.16;1468757;88;22637;-89
2022/01/31 01:48:57;;;;;;;10.30;3.23;;;;;;;1.23;68.49;99848.98;1393113;88;21516;-92
2022/01/31 01:51:26;;;;;;;16.37;4.37;;;;;;;1.23;68.41;99846.38;1540647;88;21538;-90
2022/01/31 01:53:52;;;;;;;16.20;5.03;;;;;;;1.25;68.30;99846.30;1389642;88;21507;-91
2022/01/31 01:56:18;;;;;;;11.27;2.17;;;;;;;1.27;68.17;99841.34;1395689;88;21624;-91
2022/01/31 01:58:48;;;;;;;11.30;3.10;;;;;;;1.31;68.19;99849.80;1474017;88;21390;-90
2022/01/31 02:01:14;;;;;;;15.60;3.53;;;;;;;1.31;68.12;99845.41;1393726;88;21398;-90
2022/01/31 02:03:40;;;;;;;11.37;2.80;;;;;;;1.33;67.89;99848.75;1393666;88;21376;-90
2022/01/31 02:06:08;;;;;;;11.10;2.90;;;;;;;1.35;67.81;99853.85;1405892;88;21523;-90
2022/01/31 02:08:43;;;;;;;7.17;2.57;;;;;;;1.33;67.72;99853.97;1391709;88;21449;-90
2022/01/31 02:11:12;;;;;;;11.07;3.20;;;;;;;1.32;67.74;99847.54;1552402;88;21460;-90
2022/01/31 02:13:39;;;;;;;12.90;3.23;;;;;;;1.28;67.59;99844.31;1389646;88;21448;-88
2022/01/31 02:16:08;;;;;;;7.93;2.57;;;;;;;1.25;67.78;99842.39;1391856;89;21574;-89
2022/01/31 02:18:37;;;;;;;16.93;4.73;;;;;;;1.21;67.72;99838.30;1406127;88;21404;-88
2022/01/31 02:21:03;;;;;;;15.63;3.90;;;;;;;1.18;67.66;99843.71;1477638;88;21485;-90
2022/01/31 02:23:32;;;;;;;15.73;2.70;;;;;;;1.13;67.62;99842.27;1467579;88;22490;-90
2022/01/31 02:26:05;;;;;;;19.53;3.10;;;;;;;1.10;67.61;99828.13;1502154;90;21533;-90
2022/01/31 02:28:36;;;;;;;6.60;2.30;;;;;;;1.09;67.62;99841.25;1431120;88;21522;-89
2022/01/31 02:31:04;;;;;;;9.48;3.50;;;;;;;1.06;67.58;99850.58;1403333;88;22299;-88
2022/01/31 02:33:31;;;;;;;17.23;4.60;;;;;;;1.05;67.45;99863.25;1441099;88;21294;-93
2022/01/31 02:36:01;;;;;;;13.97;4.30;;;;;;;0.99;67.86;99865.79;1431859;88;21691;-89
2022/01/31 02:38:29;;;;;;;13.37;4.33;;;;;;;0.96;67.56;99859.95;1396579;88;21642;-88
2022/01/31 02:40:57;;;;;;;20.43;4.40;;;;;;;0.92;67.69;99868.88;1399516;88;21634;-88
2022/01/31 02:43:31;;;;;;;13.13;3.57;;;;;;;0.87;67.90;99877.02;1379698;89;21493;-89
2022/01/31 02:45:58;;;;;;;14.80;4.37;;;;;;;0.82;68.00;99874.70;1552984;88;21657;-89
2022/01/31 02:48:27;;;;;;;25.37;7.10;;;;;;;0.83;67.89;99872.92;1433312;88;22534;-88
2022/01/31 02:50:54;;;;;;;15.33;6.20;;;;;;;0.79;67.97;99873.59;1490582;88;22734;-88
2022/01/31 02:53:23;;;;;;;14.70;4.83;;;;;;;0.80;67.85;99879.16;1518062;88;21579;-89
2022/01/31 02:55:50;;;;;;;14.30;4.47;;;;;;;0.78;67.87;99869.33;1544530;88;23030;-89
2022/01/31 02:58:18;;;;;;;17.47;5.50;;;;;;;0.75;68.30;99866.92;1535378;88;21596;-89
2022/01/31 03:00:45;;;;;;;17.47;5.57;;;;;;;0.72;68.31;99858.00;1445624;88;21426;-89
2022/01/31 03:03:13;;;;;;;16.07;4.00;;;;;;;0.70;68.26;99853.35;1400483;88;21982;-89
2022/01/31 03:05:39;;;;;;;15.10;4.27;;;;;;;0.67;68.28;99860.89;1461865;88;21484;-91
2022/01/31 03:08:06;;;;;;;17.30;5.47;;;;;;;0.65;68.46;99856.72;1401806;88;21523;-88
2022/01/31 03:10:33;;;;;;;22.37;6.28;;;;;;;0.62;68.61;99841.28;1544833;87;21523;-93
2022/01/31 03:13:00;;;;;;;18.77;6.23;;;;;;;0.58;68.72;99852.84;1377338;90;21257;-93
2022/01/31 03:15:27;;;;;;;15.60;5.80;;;;;;;0.53;68.62;99862.71;1374574;90;21750;-91
2022/01/31 03:17:53;;;;;;;23.03;7.00;;;;;;;0.49;68.65;99865.13;1462549;88;21616;-92
2022/01/31 03:20:24;;;;;;;33.53;9.00;;;;;;;0.44;68.86;99872.77;1407489;87;22030;-92
2022/01/31 03:22:51;;;;;;;24.02;9.45;;;;;;;0.39;69.10;99881.80;1433091;87;21655;-88
2022/01/31 03:25:18;;;;;;;18.53;7.47;;;;;;;0.37;69.24;99877.98;1417307;87;23042;-88
2022/01/31 03:27:47;;;;;;;20.43;7.60;;;;;;;0.36;69.46;99888.03;1405675;87;21446;-88
2022/01/31 03:30:20;;;;;;;17.57;5.83;;;;;;;0.34;69.63;99879.47;1463251;87;22133;-88
2022/01/31 03:32:47;;;;;;;17.70;5.73;;;;;;;0.33;69.54;99876.98;1569840;87;21344;-88
2022/01/31 03:35:14;;;;;;;32.75;9.58;;;;;;;0.34;69.31;99871.66;1521430;88;22314;-89
2022/01/31 03:37:41;;;;;;;19.83;7.37;;;;;;;0.34;69.35;99876.88;1405006;89;21331;-89
2022/01/31 03:40:09;;;;;;;24.65;7.05;;;;;;;0.34;69.19;99865.16;1380447;89;21452;-88
2022/01/31 03:42:37;;;;;;;17.57;5.80;;;;;;;0.34;69.26;99853.91;1470575;87;21271;-91
2022/01/31 03:45:07;;;;;;;14.13;4.25;;;;;;;0.36;69.11;99854.19;1383968;89;21722;-92
2022/01/31 03:47:33;;;;;;;20.97;6.17;;;;;;;0.34;69.08;99843.03;1516396;87;21507;-90
2022/01/31 03:50:00;;;;;;;15.65;5.53;;;;;;;0.34;68.95;99844.33;1553591;87;21337;-91
2022/01/31 03:52:26;;;;;;;18.57;5.95;;;;;;;0.35;68.96;99851.23;1568948;87;21264;-91
2022/01/31 03:54:55;;;;;;;33.25;7.60;;;;;;;0.33;68.98;99849.18;1407426;87;21345;-90
2022/01/31 03:57:20;;;;;;;23.57;5.70;;;;;;;0.30;69.14;99858.95;1480733;87;21484;-91
2022/01/31 03:59:46;;;;;;;20.92;4.85;;;;;;;0.31;68.85;99861.92;1505492;87;21293;-90
2022/01/31 04:02:14;;;;;;;19.30;4.72;;;;;;;0.24;69.21;99857.56;1568294;87;22187;-91
2022/01/31 04:04:40;;;;;;;17.52;5.37;;;;;;;0.23;68.97;99863.69;1407591;87;21264;-91
2022/01/31 04:07:06;;;;;;;12.30;3.93;;;;;;;0.18;69.06;99861.86;1439445;87;21298;-91
2022/01/31 04:09:32;;;;;;;13.62;3.45;;;;;;;0.16;68.94;99858.51;1456585;87;21262;-91
2022/01/31 04:11:58;;;;;;;12.90;3.98;;;;;;;0.12;69.04;99857.04;1489817;87;21308;-91
2022/01/31 04:14:27;;;;;;;16.67;4.90;;;;;;;0.11;69.10;99863.16;1538803;87;21308;-90
2022/01/31 04:16:55;;;;;;;25.57;8.85;;;;;;;0.07;69.18;99862.98;1453478;87;21307;-89
2022/01/31 04:19:23;;;;;;;28.42;8.48;;;;;;;0.03;69.45;99859.75;1418412;87;21264;-90
2022/01/31 04:21:49;;;;;;;28.00;8.85;;;;;;;0.02;69.43;99857.22;1408043;87;21352;-89
2022/01/31 04:24:22;;;;;;;21.77;6.97;;;;;;;-0.02;69.49;99850.08;1463310;88;21360;-90
2022/01/31 04:26:54;;;;;;;22.55;7.78;;;;;;;-0.02;69.45;99859.19;1399710;88;21323;-91
2022/01/31 04:29:17;;;;;;;22.02;6.90;;;;;;;-0.04;69.38;99864.47;1553387;88;21322;-91
2022/01/31 04:31:44;;;;;;;17.82;5.25;;;;;;;-0.06;69.54;99866.34;1396810;89;22084;-92
2022/01/31 04:34:09;;;;;;;14.75;5.97;;;;;;;-0.09;69.58;99862.61;1556438;88;21370;-92
2022/01/31 04:36:36;;;;;;;16.73;3.95;;;;;;;-0.12;69.65;99858.89;1443195;87;22290;-91
2022/01/31 04:39:04;;;;;;;24.15;6.40;;;;;;;-0.12;69.50;99864.56;1396806;88;21249;-92
2022/01/31 04:41:30;;;;;;;15.55;4.55;;;;;;;-0.12;69.58;99869.77;1490503;88;21366;-92
2022/01/31 04:44:01;;;;;;;17.92;4.58;;;;;;;-0.13;69.59;99867.64;1397523;88;22231;-93
2022/01/31 04:46:24;;;;;;;20.27;5.30;;;;;;;-0.13;69.41;99870.23;1407153;88;21422;-92
2022/01/31 04:48:50;;;;;;;19.55;4.95;;;;;;;-0.14;69.39;99867.28;1498007;89;21248;-92
2022/01/31 04:51:17;;;;;;;25.52;6.10;;;;;;;-0.15;69.52;99872.09;1397301;88;21388;-90
2022/01/31 04:53:43;;;;;;;18.15;5.45;;;;;;;-0.16;69.55;99880.00;1481909;88;21277;-91
2022/01/31 04:56:09;;;;;;;17.27;5.70;;;;;;;-0.20;69.64;99874.16;1396924;88;21322;-92
2022/01/31 04:58:35;;;;;;;22.77;5.83;;;;;;;-0.23;69.62;99870.44;1397356;88;22210;-91
2022/01/31 05:01:02;;;;;;;22.07;5.17;;;;;;;-0.24;69.97;99872.64;1409327;88;21308;-90
2022/01/31 05:03:29;;;;;;;18.90;6.12;;;;;;;-0.26;69.86;99873.20;1554970;88;21492;-90
2022/01/31 05:05:55;;;;;;;17.17;6.05;;;;;;;-0.28;70.00;99873.77;1453208;88;21307;-91
2022/01/31 05:08:25;;;;;;;13.95;5.42;;;;;;;-0.29;70.23;99869.48;1396682;88;21277;-90
2022/01/31 05:10:50;;;;;;;18.45;5.90;;;;;;;-0.30;70.37;99868.66;1556599;88;22223;-92
2022/01/31 05:13:17;;;;;;;13.48;3.83;;;;;;;-0.30;70.05;99869.12;1528392;88;21382;-91
2022/01/31 05:15:45;;;;;;;17.12;3.95;;;;;;;-0.30;69.93;99876.45;1396239;88;21263;-91
2022/01/31 05:18:21;;;;;;;16.00;3.80;;;;;;;-0.29;70.19;99870.34;1437335;88;21285;-91
2022/01/31 05:20:47;;;;;;;14.00;4.17;;;;;;;-0.27;70.00;99867.63;1557750;88;21183;-92
2022/01/31 05:23:14;;;;;;;11.45;3.42;;;;;;;-0.25;70.05;99865.78;1466233;87;21374;-92
2022/01/31 05:25:40;;;;;;;19.65;4.28;;;;;;;-0.24;69.95;99872.18;1417891;87;22640;-92
2022/01/31 05:28:06;;;;;;;14.73;5.25;;;;;;;-0.23;69.74;99871.73;1578614;87;21264;-91
2022/01/31 05:30:32;;;;;;;30.05;10.78;;;;;;;-0.21;69.70;99869.86;1450255;87;21292;-91
2022/01/31 05:32:59;;;;;;;47.70;16.02;;;;;;;-0.21;69.66;99871.16;1418736;87;21315;-89
2022/01/31 05:35:25;;;;;;;53.65;24.12;;;;;;;-0.23;69.66;99863.94;1403005;88;22129;-91
2022/01/31 05:40:20;;;;;;;64.32;27.20;;;;;;;-0.22;69.67;99857.80;1520059;85;26382;-89
2022/01/31 05:42:46;;;;;;;80.20;31.42;;;;;;;-0.26;69.56;99865.39;1464663;88;21370;-88
2022/01/31 05:45:12;;;;;;;38.40;15.45;;;;;;;-0.29;69.47;99869.05;1478431;88;21670;-91
2022/01/31 05:47:39;;;;;;;40.23;14.28;;;;;;;-0.31;69.61;99868.77;1476418;88;21478;-93
2022/01/31 05:50:06;;;;;;;42.70;14.68;;;;;;;-0.36;69.58;99880.72;1485366;87;21521;-91
2022/01/31 05:52:33;;;;;;;39.45;13.28;;;;;;;-0.39;69.89;99881.38;1483711;87;21478;-89
2022/01/31 05:54:59;;;;;;;36.55;15.15;;;;;;;-0.42;69.87;99886.77;1486741;87;21404;-93
2022/01/31 05:57:26;;;;;;;39.45;16.02;;;;;;;-0.44;70.29;99889.91;1472718;86;21486;-94
2022/01/31 05:59:52;;;;;;;46.83;18.07;;;;;;;-0.44;70.54;99893.34;1474279;87;21562;-91
2022/01/31 06:02:19;;;;;;;58.08;23.65;;;;;;;-0.44;70.21;99888.61;1470160;88;21456;-93
2022/01/31 06:04:45;;;;;;;51.92;22.52;;;;;;;-0.46;70.36;99883.52;1461123;88;22409;-89
2022/01/31 06:07:11;;;;;;;63.83;22.37;;;;;;;-0.47;70.33;99890.45;1468473;87;21362;-88
2022/01/31 06:17:54;;;;;;;39.53;16.67;;;;;;;-0.44;70.64;99908.94;1524499;85;22559;-93
2022/01/31 06:20:20;;;;;;;46.48;20.90;;;;;;;-0.49;70.68;99906.62;1501964;86;21477;-92
2022/01/31 06:22:50;;;;;;;38.38;16.67;;;;;;;-0.47;70.55;99913.02;1502093;86;22446;-91
2022/01/31 06:25:18;;;;;;;39.90;11.53;;;;;;;-0.45;70.75;99908.58;1483875;86;21410;-89
2022/01/31 06:27:45;;;;;;;31.75;11.38;;;;;;;-0.40;70.67;99905.25;1507787;86;22452;-90
2022/01/31 06:30:12;;;;;;;30.30;9.30;;;;;;;-0.37;70.67;99900.33;1488140;88;23369;-88
2022/01/31 06:32:38;;;;;;;26.85;11.63;;;;;;;-0.34;70.72;99899.68;1480748;86;21507;-91
2022/01/31 06:35:06;;;;;;;32.15;11.80;;;;;;;-0.28;70.63;99899.78;1485250;86;22497;-88
2022/01/31 06:37:33;;;;;;;32.03;11.03;;;;;;;-0.22;70.54;99886.87;1470490;87;21420;-94
2022/01/31 06:39:59;;;;;;;34.40;13.50;;;;;;;-0.18;70.38;99889.18;1453942;86;21339;-92
2022/01/31 06:42:25;;;;;;;42.38;15.28;;;;;;;-0.13;70.19;99889.75;1437279;89;21588;-94
2022/01/31 06:44:51;;;;;;;59.70;22.13;;;;;;;-0.06;70.00;99893.66;1461119;89;21412;-90
2022/01/31 06:47:19;;;;;;;47.23;15.68;;;;;;;0.02;69.92;99893.65;1442183;90;21498;-87
2022/01/31 06:49:46;;;;;;;34.23;12.33;;;;;;;0.09;69.81;99891.06;1448126;88;21458;-87
2022/01/31 06:52:13;;;;;;;31.43;10.87;;;;;;;0.18;69.43;99887.41;1458618;89;21442;-87
2022/01/31 06:54:39;;;;;;;34.70;11.75;;;;;;;0.24;68.64;99885.38;1460728;89;21630;-85
2022/01/31 06:57:06;;;;;;;32.90;9.37;;;;;;;0.28;68.69;99884.23;1468142;89;21514;-88
2022/01/31 06:59:32;;;;;;;33.37;8.73;;;;;;;0.31;68.21;99877.06;1443076;89;22112;-88
2022/01/31 07:01:58;;;;;;;26.57;8.83;;;;;;;0.33;68.32;99881.72;1440655;91;22462;-86
2022/01/31 07:04:24;;;;;;;26.23;7.40;;;;;;;0.37;68.13;99878.45;1431323;91;21488;-86
2022/01/31 07:06:50;;;;;;;20.50;6.40;;;;;;;0.42;67.96;99873.80;1435686;90;22669;-86
2022/01/31 07:09:16;;;;;;;28.03;6.70;;;;;;;0.48;67.69;99878.61;1436203;90;21637;-87
2022/01/31 07:11:43;;;;;;;22.07;6.20;;;;;;;0.54;67.38;99880.00;1445091;91;21623;-86
2022/01/31 07:16:55;;;;;;;18.03;5.27;;;;;;;0.71;67.08;99872.42;1441982;89;21866;-86
2022/01/31 07:19:23;;;;;;;27.13;6.50;;;;;;;0.80;67.03;99868.73;1472884;88;21938;-84
2022/01/31 07:21:50;;;;;;;23.43;5.90;;;;;;;0.89;66.09;99866.01;1458218;88;21765;-87
2022/01/31 07:24:45;;;;;;;22.63;5.90;;;;;;;0.94;65.91;99862.64;1446458;88;21785;-86
2022/01/31 07:27:01;;;;;;;20.50;5.47;;;;;;;1.03;65.88;99866.41;1465212;88;21766;-86
2022/01/31 07:29:29;;;;;;;20.77;6.70;;;;;;;1.09;65.44;99858.19;1432185;90;22203;-85
2022/01/31 07:31:57;;;;;;;24.87;7.37;;;;;;;1.17;65.73;99844.19;1469127;88;21702;-83
2022/01/31 07:34:24;;;;;;;27.23;7.30;;;;;;;1.26;64.84;99841.44;1460398;88;21604;-84
2022/01/31 07:36:52;;;;;;;33.57;6.63;;;;;;;1.32;64.71;99839.72;1420562;90;21763;-82
2022/01/31 07:39:19;;;;;;;28.40;7.30;;;;;;;1.42;65.39;99826.91;1453321;88;21712;-86
2022/01/31 07:41:48;;;;;;;19.30;6.33;;;;;;;1.49;64.76;99820.33;1402897;92;22814;-83
2022/01/31 07:44:15;;;;;;;26.03;6.37;;;;;;;1.61;66.31;99809.52;1457879;88;21685;-82
2022/01/31 07:46:41;;;;;;;21.27;6.13;;;;;;;1.74;64.69;99805.14;1454484;88;21509;-83
2022/01/31 07:49:09;;;;;;;33.07;8.63;;;;;;;1.78;64.62;99803.53;1438917;90;21809;-83
2022/01/31 07:51:40;;;;;;;24.63;7.33;;;;;;;1.86;65.22;99793.02;1463523;88;22065;-84
2022/01/31 07:54:06;;;;;;;31.00;8.77;;;;;;;1.94;64.01;99790.70;1435220;89;21690;-84
2022/01/31 07:56:32;;;;;;;24.13;7.20;;;;;;;1.99;64.03;99786.83;1458442;88;21536;-83
2022/01/31 07:58:58;;;;;;;32.40;8.03;;;;;;;2.05;63.48;99788.17;1451914;89;21728;-92
2022/01/31 08:01:26;;;;;;;21.57;6.17;;;;;;;2.09;61.47;99782.25;1460828;88;22128;-92
2022/01/31 08:03:58;;;;;;;33.00;6.53;;;;;;;2.11;62.85;99776.45;1446077;88;21511;-90
2022/01/31 08:06:33;;;;;;;17.43;5.33;;;;;;;2.09;62.86;99755.67;1394381;92;21746;-93
2022/01/31 08:09:15;;;;;;;23.10;6.07;;;;;;;2.12;62.81;99755.45;1449483;87;21765;-91
2022/01/31 08:11:41;;;;;;;36.33;6.80;;;;;;;2.18;63.26;99752.87;1452224;88;21769;-90
2022/01/31 08:14:18;;;;;;;21.63;7.67;;;;;;;2.21;63.05;99745.64;1449682;88;21723;-92
2022/01/31 08:16:44;;;;;;;25.73;8.57;;;;;;;2.21;62.36;99748.25;1439745;86;21759;-91
2022/01/31 08:19:23;;;;;;;33.00;10.97;;;;;;;2.20;62.47;99738.77;1462086;86;22024;-91
2022/01/31 08:21:49;;;;;;;27.20;8.37;;;;;;;2.21;62.32;99739.59;1487848;86;22642;-91
2022/01/31 08:24:18;;;;;;;23.63;7.23;;;;;;;2.19;61.97;99733.67;1444903;89;21673;-90
2022/01/31 08:26:44;;;;;;;36.87;9.27;;;;;;;2.18;61.95;99718.45;1447027;89;21673;-92
2022/01/31 08:29:31;;;;;;;31.40;7.40;;;;;;;2.18;62.05;99721.06;1480043;86;22593;-91
2022/01/31 08:31:54;;;;;;;32.27;8.10;;;;;;;2.16;61.61;99716.92;1459785;88;21685;-91
2022/01/31 08:35:47;;;;;;;19.60;6.73;;;;;;;2.13;61.75;99721.89;1441509;89;22633;-90
2022/01/31 08:36:52;;;;;;;27.97;8.40;;;;;;;2.15;61.75;99721.28;1450511;88;21896;-91
2022/01/31 08:39:21;;;;;;;34.80;13.63;;;;;;;2.17;61.79;99728.55;1458196;89;21814;-91
2022/01/31 08:41:51;;;;;;;30.60;10.30;;;;;;;2.19;61.61;99731.89;1436286;88;22535;-92
2022/01/31 08:44:22;;;;;;;28.00;10.47;;;;;;;2.21;61.59;99735.20;1454468;86;21716;-91
2022/01/31 08:46:49;;;;;;;59.50;21.70;;;;;;;2.23;61.75;99741.63;1477973;87;21708;-92
2022/01/31 08:49:16;;;;;;;48.40;19.63;;;;;;;2.25;61.79;99740.58;1478912;88;21389;-90
2022/01/31 08:51:45;;;;;;;33.43;9.53;;;;;;;2.28;61.68;99740.00;1485872;88;22654;-90
2022/01/31 08:54:13;;;;;;;30.10;9.10;;;;;;;2.29;61.37;99738.57;1470093;88;21705;-91
2022/01/31 08:56:45;;;;;;;20.00;6.33;;;;;;;2.31;61.62;99730.64;1474625;87;22775;-90
2022/01/31 08:59:18;;;;;;;36.20;9.60;;;;;;;2.33;61.44;99735.25;1483865;88;21793;-91
2022/01/31 09:01:55;;;;;;;26.10;6.23;;;;;;;2.37;61.50;99738.02;1474755;88;21868;-88
2022/01/31 09:04:55;;;;;;;28.63;6.20;;;;;;;2.39;61.01;99734.84;1462645;86;23894;-90
2022/01/31 09:06:56;;;;;;;28.90;5.97;;;;;;;2.39;60.69;99733.53;1482808;86;21718;-91
2022/01/31 09:09:23;;;;;;;28.03;7.77;;;;;;;2.41;61.04;99719.86;1459405;88;21713;-91
2022/01/31 09:11:50;;;;;;;24.93;7.17;;;;;;;2.46;61.05;99711.22;1485876;86;21808;-91
2022/01/31 09:14:16;;;;;;;32.67;8.47;;;;;;;2.48;61.26;99701.50;1486978;86;21662;-91
2022/01/31 09:16:43;;;;;;;32.23;7.37;;;;;;;2.51;60.95;99695.22;1441962;89;21718;-92
2022/01/31 09:19:13;;;;;;;21.97;7.63;;;;;;;2.50;60.81;99689.14;1470243;87;21529;-91
2022/01/31 09:21:39;;;;;;;28.33;7.03;;;;;;;2.52;60.85;99682.52;1463504;87;22459;-92
2022/01/31 09:24:06;;;;;;;30.43;8.07;;;;;;;2.51;60.65;99681.69;1464196;87;22389;-88
2022/01/31 09:26:32;;;;;;;31.60;7.33;;;;;;;2.52;60.76;99672.89;1483327;86;21748;-89
2022/01/31 09:28:59;;;;;;;34.07;9.30;;;;;;;2.54;60.92;99666.26;1464980;88;21803;-88
2022/01/31 09:31:26;;;;;;;20.43;7.33;;;;;;;2.55;60.86;99664.82;1431197;90;21675;-88
2022/01/31 09:33:52;;;;;;;29.57;9.07;;;;;;;2.52;60.54;99667.66;1479579;86;21649;-89
2022/01/31 09:36:18;;;;;;;29.43;8.97;;;;;;;2.52;60.66;99668.97;1480619;87;21806;-88
2022/01/31 09:38:45;;;;;;;27.83;9.03;;;;;;;2.49;60.20;99680.95;1476788;88;21827;-88
2022/01/31 09:41:16;;;;;;;30.00;9.00;;;;;;;2.47;60.20;99676.31;1464006;88;22811;-88
2022/01/31 09:43:59;;;;;;;29.90;8.60;;;;;;;2.46;60.31;99670.73;1469363;87;21880;-88
2022/01/31 09:48:37;;;;;;;43.33;11.60;;;;;;;2.45;60.03;99661.25;1470456;86;21913;-89
2022/01/31 09:51:09;;;;;;;31.30;8.60;;;;;;;2.47;60.19;99667.16;1447574;88;23456;-88
2022/01/31 09:53:40;;;;;;;37.58;9.98;;;;;;;2.47;59.58;99654.97;1430327;90;22699;-88
2022/01/31 09:56:10;;;;;;;33.70;10.97;;;;;;;2.49;59.56;99660.06;1473183;87;21524;-87
2022/01/31 09:58:38;;;;;;;30.27;9.83;;;;;;;2.59;59.90;99661.49;1474942;87;21727;-88
2022/01/31 10:01:14;;;;;;;28.83;10.40;;;;;;;2.69;59.81;99659.39;1476273;87;22798;-89
2022/01/31 10:04:01;;;;;;;28.03;8.87;;;;;;;2.77;59.68;99661.43;1476317;87;21927;-89
2022/01/31 10:06:35;;;;;;;41.37;8.53;;;;;;;2.86;59.31;99654.19;1474108;86;22868;-87
2022/01/31 10:09:13;;;;;;;28.23;8.07;;;;;;;3.06;59.33;99639.59;1429008;90;22070;-88
2022/01/31 10:11:55;;;;;;;32.43;9.53;;;;;;;3.06;59.33;99639.59;1474710;87;21827;-85
2022/01/31 10:17:32;;;;;;;35.53;10.07;;;;;;;3.08;58.41;99632.92;1476310;88;21714;-86
2022/01/31 10:20:17;;;;;;;37.90;10.47;;;;;;;3.14;58.54;99626.76;1458467;87;21944;-87
2022/01/31 10:22:44;;;;;;;28.63;8.03;;;;;;;3.31;58.19;99631.12;1482138;87;22350;-85
2022/01/31 10:25:16;;;;;;;29.13;7.50;;;;;;;3.37;57.77;99628.05;1495243;87;22199;-88
2022/01/31 10:27:53;;;;;;;31.50;8.93;;;;;;;3.37;57.77;99628.05;1422117;91;22801;-87
2022/01/31 10:30:25;;;;;;;26.93;6.83;;;;;;;3.54;57.43;99626.69;1419505;91;22087;-86
2022/01/31 10:32:54;;;;;;;30.80;9.13;;;;;;;3.54;57.43;99626.69;1422965;91;22161;-86
2022/01/31 10:35:32;;;;;;;26.20;6.07;;;;;;;3.59;57.35;99621.44;1425905;91;22203;-87
2022/01/31 10:38:08;;;;;;;28.83;7.50;;;;;;;3.65;56.51;99624.53;1418763;89;22159;-87
2022/01/31 10:54:27;;;;;;;26.73;8.13;;;;;;;3.96;55.79;99581.00;1482682;87;22536;-89
2022/01/31 10:56:57;;;;;;;29.50;8.87;;;;;;;3.96;55.79;99581.00;1476082;87;22906;-87
2022/01/31 10:59:31;;;;;;;30.07;6.50;;;;;;;3.96;55.70;99580.68;1502687;87;22321;-86
2022/01/31 11:01:59;;;;;;;22.27;7.37;;;;;;;3.89;54.97;99580.68;1473314;87;24001;-88
2022/01/31 11:04:39;;;;;;;22.20;5.40;;;;;;;3.84;54.97;99572.36;1475697;87;22170;-86
2022/01/31 11:07:15;;;;;;;23.80;7.20;;;;;;;3.72;55.77;99557.67;1443626;89;23263;-87
2022/01/31 11:09:45;;;;;;;30.00;7.40;;;;;;;3.61;56.12;99555.92;1475636;87;22684;-86
2022/01/31 11:12:13;;;;;;;25.07;6.80;;;;;;;3.55;56.34;99563.78;1476759;87;23474;-88
2022/01/31 11:14:43;;;;;;;20.47;5.27;;;;;;;3.53;56.44;99557.83;1478085;87;23138;-85
2022/01/31 11:17:13;;;;;;;33.07;9.00;;;;;;;3.43;56.46;99563.47;1476136;87;22278;-88
2022/01/31 11:19:43;;;;;;;25.60;6.95;;;;;;;3.49;56.93;99551.20;1476243;87;22222;-87
2022/01/31 11:22:12;;;;;;;29.40;5.77;;;;;;;3.57;56.73;99547.49;1470270;87;21454;-88
2022/01/31 11:24:46;;;;;;;24.23;6.90;;;;;;;3.63;56.81;99542.72;1474346;88;22699;-89
2022/01/31 11:27:17;;;;;;;20.83;4.90;;;;;;;3.71;56.65;99540.28;1459839;87;24360;-88
2022/01/31 11:29:48;;;;;;;34.98;8.00;;;;;;;3.59;56.55;99524.62;1463518;88;22324;-87
2022/01/31 11:32:16;;;;;;;25.62;7.67;;;;;;;3.69;57.25;99523.90;1431442;90;21539;-87
2022/01/31 11:34:45;;;;;;;16.10;6.10;;;;;;;3.68;56.64;99518.30;1474972;87;22410;-86
2022/01/31 11:37:15;;;;;;;27.93;6.77;;;;;;;3.69;56.89;99513.44;1397091;88;22214;-87
2022/01/31 11:39:45;;;;;;;29.60;8.03;;;;;;;3.68;56.78;99510.44;1379504;88;22059;-88
2022/01/31 11:42:13;;;;;;;32.00;6.23;;;;;;;3.70;56.96;99502.00;1473616;87;22874;-88
2022/01/31 11:44:59;;;;;;;27.23;7.03;;;;;;;3.70;56.71;99498.08;1471078;86;22121;-85
2022/01/31 11:47:29;;;;;;;33.53;9.30;;;;;;;3.67;56.32;99503.08;1471401;87;23160;-87
2022/01/31 11:50:02;;;;;;;20.50;7.10;;;;;;;3.65;56.18;99491.07;1475670;87;22249;-87
2022/01/31 11:52:49;;;;;;;18.33;5.77;;;;;;;3.60;55.93;99484.44;1473969;87;22183;-88
2022/01/31 11:55:20;;;;;;;28.07;7.07;;;;;;;3.57;56.46;99493.03;1475035;87;22684;-88
2022/01/31 11:57:51;;;;;;;16.93;4.33;;;;;;;3.59;56.64;99482.77;1474484;87;22315;-88
2022/01/31 12:00:22;;;;;;;18.62;4.12;;;;;;;3.61;56.61;99473.01;1474807;87;21598;-87
2022/01/31 12:02:55;;;;;;;27.73;6.97;;;;;;;3.69;56.54;99468.95;1476547;87;21545;-87
2022/01/31 12:05:28;;;;;;;23.17;7.63;;;;;;;3.65;55.92;99475.37;1380813;91;21340;-87
2022/01/31 12:08:14;;;;;;;36.90;8.50;;;;;;;3.66;56.33;99477.05;1403585;90;23213;-88
2022/01/31 12:10:44;;;;;;;36.00;9.13;;;;;;;3.65;56.44;99487.15;1435769;90;24210;-90